createdAt,value
2023-02-24T00:02:05.717Z,97876.00
2023-02-24T00:04:38.348Z,97876.13
2023-02-24T00:07:10.667Z,97863.81
2023-02-24T00:09:39.122Z,97863.81
2023-02-24T00:12:13.112Z,97873.16
2023-02-24T00:14:43.467Z,97869.69
2023-02-24T00:17:15.129Z,97862.47
2023-02-24T00:19:42.465Z,97856.75
2023-02-24T00:22:09.829Z,97861.56
2023-02-24T00:24:37.557Z,97861.78
2023-02-24T00:27:12.015Z,97858.06
2023-02-24T00:29:41.891Z,97850.84
2023-02-24T00:32:12.620Z,97844.16
2023-02-24T00:34:40.563Z,97841.31
2023-02-24T00:37:07.519Z,97846.34
2023-02-24T00:39:35.918Z,97842.88
2023-02-24T00:42:06.229Z,97840.22
2023-02-24T00:44:43.841Z,97826.47
2023-02-24T00:47:12.252Z,97825.59
2023-02-24T00:49:44.507Z,97830.75
2023-02-24T00:52:21.735Z,97834.50
2023-02-24T00:54:50.692Z,97830.31
2023-02-24T00:57:18.665Z,97828.75
2023-02-24T00:59:48.560Z,97835.34
2023-02-24T01:02:16.180Z,97831.00
2023-02-24T01:04:44.774Z,97832.81
2023-02-24T01:07:13.979Z,97823.13
2023-02-24T01:09:41.917Z,97834.72
2023-02-24T01:12:30.470Z,97833.63
2023-02-24T01:14:57.697Z,97831.03
2023-02-24T01:17:25.451Z,97826.09
2023-02-24T01:19:52.812Z,97826.84
2023-02-24T01:22:21.344Z,97818.94
2023-02-24T01:24:49.008Z,97813.88
2023-02-24T01:27:21.235Z,97818.56
2023-02-24T01:29:48.829Z,97817.75
2023-02-24T01:32:20.339Z,97820.72
2023-02-24T01:34:51.495Z,97820.59
2023-02-24T01:37:19.494Z,97820.34
2023-02-24T01:39:47.708Z,97813.50
2023-02-24T01:42:20.084Z,97796.72
2023-02-24T01:44:47.649Z,97798.44
2023-02-24T01:47:20.875Z,97800.25
2023-02-24T01:49:52.261Z,97802.56
2023-02-24T01:52:26.994Z,97798.84
2023-02-24T01:54:58.537Z,97798.09
2023-02-24T01:57:31.253Z,97794.34
2023-02-24T02:00:11.170Z,97792.53
2023-02-24T02:02:46.426Z,97784.34
2023-02-24T02:05:14.793Z,97791.03
2023-02-24T02:07:43.522Z,97788.28
2023-02-24T02:10:11.671Z,97797.88
2023-02-24T02:12:44.189Z,97790.19
2023-02-24T02:15:15.456Z,97780.34
2023-02-24T02:18:08.168Z,97780.72
2023-02-24T02:20:55.794Z,97776.03
2023-02-24T02:24:04.609Z,97773.91
2023-02-24T02:27:20.955Z,97775.13
2023-02-24T02:30:19.608Z,97774.41
2023-02-24T02:33:01.887Z,97779.31
2023-02-24T02:35:46.392Z,97769.88
2023-02-24T02:38:38.045Z,97767.19
2023-02-24T02:41:21.711Z,97766.38
2023-02-24T02:44:12.059Z,97759.34
2023-02-24T02:46:47.457Z,97760.44
2023-02-24T02:49:20.811Z,97757.69
2023-02-24T02:51:56.820Z,97760.63
2023-02-24T02:54:37.061Z,97760.75
2023-02-24T02:57:16.838Z,97759.44
2023-02-24T02:59:53.604Z,97763.53
2023-02-24T03:02:29.517Z,97755.66
2023-02-24T03:05:01.941Z,97758.03
2023-02-24T03:07:37.544Z,97750.53
2023-02-24T03:10:20.887Z,97754.09
2023-02-24T03:12:54.137Z,97752.41
2023-02-24T03:15:24.134Z,97754.09
2023-02-24T03:18:10.160Z,97753.38
2023-02-24T03:20:43.133Z,97745.97
2023-02-24T03:23:26.140Z,97746.91
2023-02-24T03:26:21.944Z,97746.06
2023-02-24T03:29:23.906Z,97741.63
2023-02-24T03:32:10.138Z,97740.66
2023-02-24T03:34:55.632Z,97743.41
2023-02-24T03:37:28.138Z,97737.50
2023-02-24T03:40:11.580Z,97739.81
2023-02-24T03:42:52.888Z,97736.94
2023-02-24T03:45:23.087Z,97732.25
2023-02-24T03:47:54.072Z,97729.88
2023-02-24T03:50:22.180Z,97730.59
2023-02-24T03:53:22.356Z,97725.94
2023-02-24T03:56:23.448Z,97720.78
2023-02-24T03:59:13.376Z,97720.63
2023-02-24T04:02:00.926Z,97717.88
2023-02-24T04:04:59.525Z,97710.72
2023-02-24T04:07:52.797Z,97711.06
2023-02-24T04:10:41.764Z,97709.41
2023-02-24T04:13:35.212Z,97720.56
2023-02-24T04:16:27.972Z,97715.66
2023-02-24T04:19:03.743Z,97713.25
2023-02-24T04:21:33.534Z,97718.78
2023-02-24T04:24:11.478Z,97716.41
2023-02-24T04:26:42.904Z,97719.13
2023-02-24T04:29:17.708Z,97709.69
2023-02-24T04:31:50.867Z,97719.25
2023-02-24T04:34:20.173Z,97715.78
2023-02-24T04:36:51.687Z,97708.97
2023-02-24T04:39:21.228Z,97699.00
2023-02-24T04:41:52.294Z,97702.00
2023-02-24T04:44:22.873Z,97700.19
2023-02-24T04:46:51.373Z,97700.56
2023-02-24T04:49:19.764Z,97692.66
2023-02-24T04:51:47.256Z,97691.97
2023-02-24T04:54:17.614Z,97689.78
2023-02-24T04:56:47.919Z,97687.03
2023-02-24T04:59:15.403Z,97684.75
2023-02-24T05:01:44.173Z,97684.91
2023-02-24T05:04:14.022Z,97679.63
2023-02-24T05:06:44.069Z,97681.09
2023-02-24T05:09:19.479Z,97667.00
2023-02-24T05:11:51.782Z,97668.81
2023-02-24T05:14:24.946Z,97675.00
2023-02-24T05:16:52.067Z,97667.25
2023-02-24T05:19:39.453Z,97668.19
2023-02-24T05:22:11.621Z,97665.00
2023-02-24T05:24:38.618Z,97658.84
2023-02-24T05:27:05.551Z,97652.03
2023-02-24T05:29:34.992Z,97646.31
2023-02-24T05:32:04.105Z,97654.53
2023-02-24T05:34:33.233Z,97653.47
2023-02-24T05:37:04.421Z,97644.97
2023-02-24T05:39:31.487Z,97645.22
2023-02-24T05:41:58.515Z,97644.13
2023-02-24T05:44:26.829Z,97628.91
2023-02-24T05:46:58.299Z,97640.41
2023-02-24T05:49:31.250Z,97630.84
2023-02-24T05:52:01.511Z,97621.28
2023-02-24T05:54:36.626Z,97624.50
2023-02-24T05:57:11.981Z,97621.63
2023-02-24T05:59:44.539Z,97625.91
2023-02-24T06:02:15.802Z,97624.38
2023-02-24T06:04:53.855Z,97621.16
2023-02-24T06:07:25.336Z,97628.44
2023-02-24T06:09:57.810Z,97627.59
2023-02-24T06:12:33.706Z,97617.75
2023-02-24T06:15:02.281Z,97616.09
2023-02-24T06:17:29.772Z,97618.00
2023-02-24T06:19:56.760Z,97617.91
2023-02-24T06:22:26.218Z,97608.91
2023-02-24T06:24:54.763Z,97614.28
2023-02-24T06:27:24.582Z,97610.09
2023-02-24T06:29:54.148Z,97608.81
2023-02-24T06:32:26.065Z,97605.31
2023-02-24T06:34:53.979Z,97598.75
2023-02-24T06:37:22.987Z,97598.75
2023-02-24T06:39:50.167Z,97596.38
2023-02-24T06:42:17.152Z,97596.38
2023-02-24T06:44:44.111Z,97597.47
2023-02-24T06:47:14.543Z,97596.38
2023-02-24T06:49:42.962Z,97598.03
2023-02-24T06:52:11.656Z,97607.03
2023-02-24T06:54:38.835Z,97605.13
2023-02-24T06:57:05.894Z,97598.31
2023-02-24T06:59:33.071Z,97608.13
2023-02-24T07:02:04.669Z,97601.56
2023-02-24T07:04:41.944Z,97590.78
2023-02-24T07:07:10.490Z,97590.03
2023-02-24T07:09:37.437Z,97595.38
2023-02-24T07:12:04.810Z,97601.84
2023-02-24T07:14:31.880Z,97595.50
2023-02-24T07:17:00.156Z,97589.59
2023-02-24T07:19:30.666Z,97588.75
2023-02-24T07:22:02.094Z,97590.19
2023-02-24T07:24:36.070Z,97589.22
2023-02-24T07:27:23.405Z,97581.06
2023-02-24T07:29:53.276Z,97581.06
2023-02-24T07:32:22.393Z,97584.28
2023-02-24T07:34:49.465Z,97583.91
2023-02-24T07:37:16.814Z,97579.84
2023-02-24T07:39:43.962Z,97574.47
2023-02-24T07:42:14.680Z,97571.56
2023-02-24T07:44:46.573Z,97579.34
2023-02-24T07:47:15.917Z,97573.00
2023-02-24T07:49:43.675Z,97568.94
2023-02-24T07:52:11.672Z,97569.66
2023-02-24T07:54:39.228Z,97561.28
2023-02-24T07:57:13.541Z,97558.78
2023-02-24T07:59:47.251Z,97559.59
2023-02-24T08:02:15.359Z,97559.53
2023-02-24T08:04:49.909Z,97560.69
2023-02-24T08:07:24.192Z,97549.34
2023-02-24T08:10:10.059Z,97552.50
2023-02-24T08:12:43.071Z,97545.81
2023-02-24T08:15:17.759Z,97548.06
2023-02-24T08:17:47.314Z,97541.47
2023-02-24T08:20:14.816Z,97546.75
2023-02-24T08:22:46.646Z,97549.44
2023-02-24T08:25:19.032Z,97544.66
2023-02-24T08:28:12.520Z,97542.66
2023-02-24T08:30:45.604Z,97543.41
2023-02-24T08:33:19.943Z,97534.41
2023-02-24T08:35:57.983Z,97535.66
2023-02-24T08:38:27.571Z,97531.63
2023-02-24T08:40:55.766Z,97532.50
2023-02-24T08:43:30.420Z,97523.59
2023-02-24T08:46:13.405Z,97529.47
2023-02-24T08:48:44.896Z,97523.00
2023-02-24T08:51:23.477Z,97524.34
2023-02-24T08:53:53.782Z,97520.91
2023-02-24T08:56:28.545Z,97525.44
2023-02-24T08:59:05.691Z,97518.72
2023-02-24T09:02:04.241Z,97522.09
2023-02-24T09:04:34.354Z,97517.66
2023-02-24T09:07:11.810Z,97513.75
2023-02-24T09:09:42.204Z,97512.97
2023-02-24T09:12:21.916Z,97507.44
2023-02-24T09:14:55.414Z,97509.69
2023-02-24T09:17:49.640Z,97510.22
2023-02-24T09:20:25.888Z,97504.44
2023-02-24T09:22:57.962Z,97497.38
2023-02-24T09:25:40.624Z,97494.72
2023-02-24T09:28:17.984Z,97499.19
2023-02-24T09:30:53.264Z,97495.91
2023-02-24T09:33:51.054Z,97500.78
2023-02-24T09:36:20.965Z,97500.66
2023-02-24T09:39:00.760Z,97495.91
2023-02-24T09:42:17.979Z,97490.91
2023-02-24T09:44:52.818Z,97490.06
2023-02-24T09:47:52.104Z,97493.16
2023-02-24T09:50:55.551Z,97488.44
2023-02-24T09:53:18.360Z,97479.97
2023-02-24T09:56:00.318Z,97480.09
2023-02-24T09:58:47.766Z,97475.59
2023-02-24T10:01:23.734Z,97481.72
2023-02-24T10:04:23.169Z,97475.03
2023-02-24T10:07:22.857Z,97476.13
2023-02-24T10:10:19.664Z,97466.03
2023-02-24T10:13:30.108Z,97461.50
2023-02-24T10:16:06.249Z,97468.72
2023-02-24T10:19:01.133Z,97466.22
2023-02-24T10:22:00.233Z,97469.72
2023-02-24T10:24:34.370Z,97459.69
2023-02-24T10:27:24.994Z,97465.22
2023-02-24T10:30:11.470Z,97461.25
2023-02-24T10:32:53.385Z,97455.00
2023-02-24T10:35:25.932Z,97454.63
2023-02-24T10:37:58.913Z,97457.97
2023-02-24T10:40:43.749Z,97453.75
2023-02-24T10:43:17.890Z,97448.81
2023-02-24T10:45:46.882Z,97443.25
2023-02-24T10:48:41.033Z,97444.09
2023-02-24T10:51:20.024Z,97438.53
2023-02-24T10:54:09.806Z,97437.75
2023-02-24T10:56:55.384Z,97426.06
2023-02-24T10:59:25.427Z,97427.75
2023-02-24T11:02:24.601Z,97429.84
2023-02-24T11:04:54.756Z,97415.16
2023-02-24T11:07:24.952Z,97419.19
2023-02-24T11:10:25.993Z,97412.81
2023-02-24T11:13:13.751Z,97411.69
2023-02-24T11:16:05.310Z,97400.34
2023-02-24T11:18:32.780Z,97402.84
2023-02-24T11:21:02.590Z,97392.84
2023-02-24T11:23:37.957Z,97386.19
2023-02-24T11:26:34.786Z,97385.19
2023-02-24T11:29:17.456Z,97377.56
2023-02-24T11:32:19.183Z,97365.09
2023-02-24T11:35:17.752Z,97368.38
2023-02-24T11:38:02.649Z,97357.94
2023-02-24T11:40:37.644Z,97360.00
2023-02-24T11:43:18.514Z,97366.72
2023-02-24T11:46:02.288Z,97361.72
2023-02-24T11:48:48.188Z,97353.13
2023-02-24T11:51:23.736Z,97346.88
2023-02-24T11:54:04.137Z,97348.41
2023-02-24T11:56:38.839Z,97330.19
2023-02-24T11:59:18.785Z,97333.66
2023-02-24T12:02:17.077Z,97334.38
2023-02-24T12:05:00.294Z,97313.94
2023-02-24T12:07:50.407Z,97316.41
2023-02-24T12:10:24.352Z,97313.22
2023-02-24T12:13:21.418Z,97308.03
2023-02-24T12:16:03.253Z,97298.69
2023-02-24T12:18:42.925Z,97290.28
2023-02-24T12:21:33.907Z,97270.50
2023-02-24T12:24:02.249Z,97254.19
2023-02-24T12:26:48.029Z,97269.84
2023-02-24T12:29:57.780Z,97274.91
2023-02-24T12:32:47.251Z,97282.97
2023-02-24T12:35:33.608Z,97279.59
2023-02-24T12:38:41.321Z,97275.03
2023-02-24T12:41:23.733Z,97273.69
2023-02-24T12:44:48.150Z,97263.50
2023-02-24T12:47:32.949Z,97254.78
2023-02-24T12:50:10.704Z,97248.69
2023-02-24T12:52:55.030Z,97250.00
2023-02-24T12:55:49.020Z,97247.66
2023-02-24T12:58:45.982Z,97236.22
2023-02-24T13:01:27.804Z,97233.69
2023-02-24T13:04:45.300Z,97232.00
2023-02-24T13:07:39.460Z,97219.41
2023-02-24T13:10:49.547Z,97223.53
2023-02-24T13:13:41.855Z,97215.50
2023-02-24T13:16:12.198Z,97216.69
2023-02-24T13:18:39.594Z,97224.84
2023-02-24T13:21:22.769Z,97225.69
2023-02-24T13:23:58.355Z,97215.25
2023-02-24T13:26:28.079Z,97224.09
2023-02-24T13:29:15.023Z,97220.81
2023-02-24T13:31:53.150Z,97210.59
2023-02-24T13:34:26.307Z,97210.44
2023-02-24T13:36:53.410Z,97202.31
2023-02-24T13:39:36.743Z,97193.38
2023-02-24T13:42:31.198Z,97185.72
2023-02-24T13:45:10.304Z,97178.97
2023-02-24T13:48:23.060Z,97173.19
2023-02-24T13:51:11.731Z,97177.28
2023-02-24T13:54:20.221Z,97176.47
2023-02-24T13:57:00.227Z,97178.09
2023-02-24T14:00:10.134Z,97158.84
2023-02-24T14:02:44.106Z,97161.25
2023-02-24T14:05:25.085Z,97159.88
2023-02-24T14:07:53.256Z,97151.59
2023-02-24T14:10:30.528Z,97143.28
2023-02-24T14:13:11.782Z,97144.09
2023-02-24T14:15:43.380Z,97128.19
2023-02-24T14:18:28.915Z,97132.13
2023-02-24T14:20:58.514Z,97126.22
2023-02-24T14:23:28.887Z,97129.38
2023-02-24T14:26:07.399Z,97128.81
2023-02-24T14:28:38.007Z,97115.44
2023-02-24T14:31:15.599Z,97121.22
2023-02-24T14:33:45.380Z,97118.94
2023-02-24T14:36:21.437Z,97109.38
2023-02-24T14:39:08.860Z,97112.34
2023-02-24T14:41:36.672Z,97109.50
2023-02-24T14:44:23.258Z,97103.38
2023-02-24T14:46:53.974Z,97098.69
2023-02-24T14:49:25.560Z,97102.16
2023-02-24T14:52:03.419Z,97088.44
2023-02-24T14:54:55.592Z,97090.84
2023-02-24T14:57:29.194Z,97090.16
2023-02-24T15:00:10.648Z,97083.41
2023-02-24T15:02:44.968Z,97078.69
2023-02-24T15:05:12.391Z,97074.66
2023-02-24T15:07:40.219Z,97065.25
2023-02-24T15:10:21.053Z,97062.78
2023-02-24T15:12:54.429Z,97069.03
2023-02-24T15:15:28.506Z,97065.13
2023-02-24T15:18:04.258Z,97056.69
2023-02-24T15:20:40.718Z,97056.25
2023-02-24T15:23:29.029Z,97054.06
2023-02-24T15:25:56.066Z,97052.41
2023-02-24T15:28:31.259Z,97045.75
2023-02-24T15:31:00.995Z,97041.44
2023-02-24T15:33:45.384Z,97042.38
2023-02-24T15:36:21.666Z,97033.53
2023-02-24T15:38:53.774Z,97026.56
2023-02-24T15:41:21.419Z,97030.63
2023-02-24T15:43:52.972Z,97025.38
2023-02-24T15:46:31.871Z,97029.97
2023-02-24T15:49:03.150Z,97010.00
2023-02-24T15:51:45.302Z,97007.66
2023-02-24T15:54:30.801Z,97011.94
2023-02-24T15:57:00.150Z,97013.59
2023-02-24T15:59:28.334Z,97009.28
2023-02-24T16:01:55.745Z,97004.72
2023-02-24T16:04:23.932Z,97002.41
2023-02-24T16:06:55.612Z,96998.09
2023-02-24T16:09:36.626Z,96992.06
2023-02-24T16:12:17.345Z,96985.91
2023-02-24T16:14:45.145Z,96987.72
2023-02-24T16:17:32.428Z,96979.81
2023-02-24T16:20:00.271Z,96982.66
2023-02-24T16:22:28.672Z,96982.69
2023-02-24T16:24:58.770Z,96983.53
2023-02-24T16:27:27.435Z,96984.13
2023-02-24T16:29:54.457Z,96983.31
2023-02-24T16:32:23.542Z,96979.16
2023-02-24T16:34:51.425Z,96985.78
2023-02-24T16:37:29.330Z,96983.19
2023-02-24T16:39:59.023Z,96979.59
2023-02-24T16:42:31.016Z,96982.91
2023-02-24T16:44:57.967Z,96983.88
2023-02-24T16:47:25.773Z,96998.84
2023-02-24T16:49:57.562Z,96978.78
2023-02-24T16:52:24.946Z,96980.03
2023-02-24T16:54:52.149Z,96981.00
2023-02-24T16:57:19.122Z,96982.09
2023-02-24T16:59:46.482Z,96976.69
2023-02-24T17:02:22.640Z,96975.31
2023-02-24T17:04:49.738Z,96969.63
2023-02-24T17:07:19.015Z,96971.44
2023-02-24T17:09:45.950Z,96981.44
2023-02-24T17:12:14.760Z,96977.56
2023-02-24T17:14:41.698Z,96974.78
2023-02-24T17:17:08.757Z,96983.81
2023-02-24T17:19:35.763Z,96973.16
2023-02-24T17:22:02.798Z,96974.00
2023-02-24T17:24:29.924Z,96969.56
2023-02-24T17:27:01.078Z,96973.84
2023-02-24T17:29:28.340Z,96977.19
2023-02-24T17:31:55.457Z,96977.47
2023-02-24T17:34:24.205Z,96978.19
2023-02-24T17:36:51.274Z,96978.31
2023-02-24T17:39:18.324Z,96967.63
2023-02-24T17:41:45.400Z,96978.59
2023-02-24T17:44:12.421Z,96976.53
2023-02-24T17:46:39.502Z,96984.72
2023-02-24T17:49:06.548Z,96981.94
2023-02-24T17:51:33.724Z,96983.75
2023-02-24T17:54:00.690Z,96985.81
2023-02-24T17:56:27.725Z,96982.06
2023-02-24T17:58:58.672Z,96982.25
2023-02-24T18:01:26.302Z,96982.38
2023-02-24T18:03:55.674Z,96975.84
2023-02-24T18:06:23.263Z,96977.78
2023-02-24T18:08:50.805Z,96971.84
2023-02-24T18:11:19.785Z,96975.59
2023-02-24T18:13:48.602Z,96973.38
2023-02-24T18:16:16.337Z,96976.69
2023-02-24T18:18:43.400Z,96974.50
2023-02-24T18:21:10.389Z,96990.16
2023-02-24T18:23:41.008Z,96989.31
2023-02-24T18:26:11.103Z,96985.56
2023-02-24T18:28:38.810Z,96988.06
2023-02-24T18:31:18.796Z,96979.88
2023-02-24T18:33:46.330Z,96977.84
2023-02-24T18:36:14.954Z,96978.53
2023-02-24T18:38:41.872Z,96982.53
2023-02-24T18:41:12.532Z,96986.03
2023-02-24T18:43:39.766Z,96983.94
2023-02-24T18:46:11.941Z,96982.94
2023-02-24T18:48:40.643Z,96981.03
2023-02-24T18:51:08.299Z,96989.19
2023-02-24T18:53:38.292Z,96982.41
2023-02-24T18:56:09.449Z,96978.69
2023-02-24T18:58:37.211Z,96981.19
2023-02-24T19:01:21.425Z,96982.13
2023-02-24T19:03:51.017Z,96980.47
2023-02-24T19:06:20.754Z,96973.94
2023-02-24T19:08:54.571Z,96978.69
2023-02-24T19:11:21.717Z,96977.56
2023-02-24T19:13:48.747Z,96982.41
2023-02-24T19:16:17.821Z,96989.59
2023-02-24T19:18:45.224Z,96979.91
2023-02-24T19:21:13.932Z,96978.81
2023-02-24T19:23:41.030Z,96982.53
2023-02-24T19:26:23.580Z,96979.22
2023-02-24T19:28:51.614Z,96976.88
2023-02-24T19:31:23.730Z,96978.81
2023-02-24T19:34:01.035Z,96977.44
2023-02-24T19:36:30.761Z,96975.06
2023-02-24T19:38:57.788Z,96988.09
2023-02-24T19:41:25.021Z,96991.81
2023-02-24T19:43:52.284Z,96994.56
2023-02-24T19:46:19.711Z,96987.25
2023-02-24T19:48:47.061Z,96988.09
2023-02-24T19:51:18.571Z,96999.44
2023-02-24T19:53:45.877Z,96999.72
2023-02-24T19:56:13.616Z,96995.28
2023-02-24T19:58:40.617Z,96996.09
2023-02-24T20:01:13.803Z,96989.19
2023-02-24T20:03:42.648Z,96998.88
2023-02-24T20:06:35.751Z,96996.53
2023-02-24T20:09:15.381Z,96998.72
2023-02-24T20:11:44.333Z,96994.84
2023-02-24T20:14:12.855Z,96997.19
2023-02-24T20:16:42.255Z,96995.13
2023-02-24T20:19:11.488Z,96990.16
2023-02-24T20:21:39.269Z,96978.25
2023-02-24T20:24:12.624Z,96976.03
2023-02-24T20:26:43.501Z,96988.34
2023-02-24T20:29:11.401Z,96988.88
2023-02-24T20:31:39.871Z,96994.72
2023-02-24T20:34:09.252Z,97000.38
2023-02-24T20:36:36.829Z,97013.50
2023-02-24T20:39:06.536Z,97002.69
2023-02-24T20:41:34.552Z,97003.78
2023-02-24T20:44:01.491Z,97010.03
2023-02-24T20:46:31.457Z,97007.19
2023-02-24T20:49:02.215Z,97010.88
2023-02-24T20:51:31.169Z,97018.97
2023-02-24T20:53:58.864Z,97029.19
2023-02-24T20:56:33.945Z,97027.06
2023-02-24T20:59:04.665Z,97044.91
2023-02-24T21:01:32.940Z,97045.47
2023-02-24T21:04:01.254Z,97057.06
2023-02-24T21:06:29.309Z,97054.91
2023-02-24T21:08:57.619Z,97057.19
2023-02-24T21:11:25.856Z,97064.22
2023-02-24T21:13:53.645Z,97071.50
2023-02-24T21:16:21.973Z,97075.44
2023-02-24T21:18:51.482Z,97076.78
2023-02-24T21:21:20.196Z,97075.66
2023-02-24T21:23:47.945Z,97083.91
2023-02-24T21:26:15.274Z,97080.81
2023-02-24T21:28:42.377Z,97088.09
2023-02-24T21:31:20.425Z,97073.09
2023-02-24T21:33:52.199Z,97072.03
2023-02-24T21:36:21.444Z,97072.84
2023-02-24T21:38:49.274Z,97075.25
2023-02-24T21:41:19.369Z,97080.84
2023-02-24T21:43:47.098Z,97086.31
2023-02-24T21:46:15.926Z,97079.66
2023-02-24T21:48:43.399Z,97082.63
2023-02-24T21:51:12.646Z,97082.63
2023-02-24T21:53:43.462Z,97093.81
2023-02-24T21:56:20.107Z,97093.59
2023-02-24T21:58:56.489Z,97083.13
2023-02-24T22:01:28.665Z,97090.13
2023-02-24T22:03:59.429Z,97093.94
2023-02-24T22:06:31.022Z,97092.50
2023-02-24T22:08:58.899Z,97091.06
2023-02-24T22:11:26.218Z,97094.28
2023-02-24T22:13:53.167Z,97091.53
2023-02-24T22:16:23.806Z,97099.25
2023-02-24T22:18:53.331Z,97100.09
2023-02-24T22:21:24.357Z,97094.03
2023-02-24T22:23:54.088Z,97099.28
2023-02-24T22:26:23.578Z,97101.44
2023-02-24T22:28:51.462Z,97105.22
2023-02-24T22:31:22.400Z,97111.53
2023-02-24T22:33:50.181Z,97110.22
2023-02-24T22:36:20.508Z,97104.00
2023-02-24T22:38:48.285Z,97104.34
2023-02-24T22:41:18.826Z,97099.22
2023-02-24T22:43:46.627Z,97093.31
2023-02-24T22:46:17.857Z,97105.19
2023-02-24T22:48:45.539Z,97108.41
2023-02-24T22:51:13.836Z,97109.50
2023-02-24T22:53:43.353Z,97115.41
2023-02-24T22:56:15.666Z,97120.88
2023-02-24T22:58:43.487Z,97110.78
2023-02-24T23:01:17.334Z,97110.41
2023-02-24T23:03:46.104Z,97112.09
2023-02-24T23:06:17.254Z,97119.84
2023-02-24T23:08:47.357Z,97123.88
2023-02-24T23:11:21.791Z,97131.50
2023-02-24T23:13:50.962Z,97128.00
2023-02-24T23:16:24.601Z,97128.00
2023-02-24T23:18:53.869Z,97133.63
2023-02-24T23:21:53.848Z,97141.72
2023-02-24T23:24:22.144Z,97144.69
2023-02-24T23:26:53.841Z,97144.69
2023-02-24T23:29:22.474Z,97147.28
2023-02-24T23:31:51.189Z,97146.56
2023-02-24T23:34:18.865Z,97158.34
2023-02-24T23:36:47.855Z,97161.69
2023-02-24T23:39:17.316Z,97163.09
2023-02-24T23:41:44.851Z,97156.06
2023-02-24T23:44:12.678Z,97160.97
2023-02-24T23:46:41.660Z,97168.34
2023-02-24T23:49:08.764Z,97155.53
2023-02-24T23:51:47.475Z,97160.47
2023-02-24T23:54:19.160Z,97163.09
2023-02-24T23:56:46.448Z,97172.00
2023-02-24T23:59:13.681Z,97170.72
